sensor_id;sensor_type;location;lat;lon;timestamp;temperature;humidity
57636;DHT22;43465;50.728;4.160;2023-05-07T00:02:21;17.50;99.90
57636;DHT22;43465;50.728;4.160;2023-05-07T00:04:48;17.40;99.90
57636;DHT22;43465;50.728;4.160;2023-05-07T00:07:15;17.30;99.90
57636;DHT22;43465;50.728;4.160;2023-05-07T00:09:40;17.10;99.90
57636;DHT22;43465;50.728;4.160;2023-05-07T00:12:06;17.30;99.90
57636;DHT22;43465;50.728;4.160;2023-05-07T00:14:32;17.30;99.90
57636;DHT22;43465;50.728;4.160;2023-05-07T00:16:58;17.30;99.90
57636;DHT22;43465;50.728;4.160;2023-05-07T00:19:24;17.30;99.90
57636;DHT22;43465;50.728;4.160;2023-05-07T00:21:50;17.40;99.90
57636;DHT22;43465;50.728;4.160;2023-05-07T00:24:15;17.40;99.90
57636;DHT22;43465;50.728;4.160;2023-05-07T00:26:41;17.40;99.90
57636;DHT22;43465;50.728;4.160;2023-05-07T00:29:07;17.40;99.90
57636;DHT22;43465;50.728;4.160;2023-05-07T00:31:32;17.40;99.90
57636;DHT22;43465;50.728;4.160;2023-05-07T00:33:58;17.40;99.90
57636;DHT22;43465;50.728;4.160;2023-05-07T00:36:24;17.50;99.90
57636;DHT22;43465;50.728;4.160;2023-05-07T00:38:49;17.50;99.90
57636;DHT22;43465;50.728;4.160;2023-05-07T00:41:15;17.60;99.90
57636;DHT22;43465;50.728;4.160;2023-05-07T00:43:41;17.60;99.90
57636;DHT22;43465;50.728;4.160;2023-05-07T00:46:06;17.50;99.90
57636;DHT22;43465;50.728;4.160;2023-05-07T00:48:32;17.50;99.90
57636;DHT22;43465;50.728;4.160;2023-05-07T00:50:58;17.40;99.90
57636;DHT22;43465;50.728;4.160;2023-05-07T00:53:24;17.30;99.90
57636;DHT22;43465;50.728;4.160;2023-05-07T00:55:50;17.20;99.90
57636;DHT22;43465;50.728;4.160;2023-05-07T00:58:16;17.20;99.90
57636;DHT22;43465;50.728;4.160;2023-05-07T01:00:42;17.20;99.90
57636;DHT22;43465;50.728;4.160;2023-05-07T01:03:08;17.10;99.90
57636;DHT22;43465;50.728;4.160;2023-05-07T01:05:34;17.00;99.90
57636;DHT22;43465;50.728;4.160;2023-05-07T01:08:01;17.10;99.90
57636;DHT22;43465;50.728;4.160;2023-05-07T01:10:28;17.10;99.90
57636;DHT22;43465;50.728;4.160;2023-05-07T01:12:57;17.10;99.90
57636;DHT22;43465;50.728;4.160;2023-05-07T01:15:24;17.10;99.90
57636;DHT22;43465;50.728;4.160;2023-05-07T01:17:49;17.00;99.90
57636;DHT22;43465;50.728;4.160;2023-05-07T01:20:15;17.10;99.90
57636;DHT22;43465;50.728;4.160;2023-05-07T01:22:41;17.00;99.90
57636;DHT22;43465;50.728;4.160;2023-05-07T01:25:08;17.10;99.90
57636;DHT22;43465;50.728;4.160;2023-05-07T01:27:34;17.00;99.90
57636;DHT22;43465;50.728;4.160;2023-05-07T01:30:01;17.00;99.90
57636;DHT22;43465;50.728;4.160;2023-05-07T01:35:00;17.20;99.90
57636;DHT22;43465;50.728;4.160;2023-05-07T01:37:26;17.10;99.90
57636;DHT22;43465;50.728;4.160;2023-05-07T01:39:53;17.10;99.90
57636;DHT22;43465;50.728;4.160;2023-05-07T01:42:19;17.10;99.90
57636;DHT22;43465;50.728;4.160;2023-05-07T01:44:45;17.00;99.90
57636;DHT22;43465;50.728;4.160;2023-05-07T01:47:12;16.90;99.90
57636;DHT22;43465;50.728;4.160;2023-05-07T01:49:38;16.90;99.90
57636;DHT22;43465;50.728;4.160;2023-05-07T01:52:04;17.00;99.90
57636;DHT22;43465;50.728;4.160;2023-05-07T01:54:30;17.00;99.90
57636;DHT22;43465;50.728;4.160;2023-05-07T01:56:56;16.90;99.90
57636;DHT22;43465;50.728;4.160;2023-05-07T01:59:22;16.80;99.90
57636;DHT22;43465;50.728;4.160;2023-05-07T02:01:48;16.80;99.90
57636;DHT22;43465;50.728;4.160;2023-05-07T02:04:13;16.80;99.90
57636;DHT22;43465;50.728;4.160;2023-05-07T02:06:39;16.80;99.90
57636;DHT22;43465;50.728;4.160;2023-05-07T02:09:05;16.80;99.90
57636;DHT22;43465;50.728;4.160;2023-05-07T02:11:30;16.70;99.90
57636;DHT22;43465;50.728;4.160;2023-05-07T02:13:56;16.70;99.90
57636;DHT22;43465;50.728;4.160;2023-05-07T02:16:22;16.70;99.90
57636;DHT22;43465;50.728;4.160;2023-05-07T02:18:48;16.70;99.90
57636;DHT22;43465;50.728;4.160;2023-05-07T02:21:14;16.70;99.90
57636;DHT22;43465;50.728;4.160;2023-05-07T02:23:40;16.70;99.90
57636;DHT22;43465;50.728;4.160;2023-05-07T02:26:05;16.70;99.90
57636;DHT22;43465;50.728;4.160;2023-05-07T02:28:31;16.70;99.90
57636;DHT22;43465;50.728;4.160;2023-05-07T02:30:57;16.70;99.90
57636;DHT22;43465;50.728;4.160;2023-05-07T02:33:25;16.80;99.90
57636;DHT22;43465;50.728;4.160;2023-05-07T02:35:50;16.80;99.90
57636;DHT22;43465;50.728;4.160;2023-05-07T02:38:17;16.80;99.90
57636;DHT22;43465;50.728;4.160;2023-05-07T02:40:43;16.80;99.90
57636;DHT22;43465;50.728;4.160;2023-05-07T02:43:09;16.80;99.90
57636;DHT22;43465;50.728;4.160;2023-05-07T02:45:35;16.80;99.90
57636;DHT22;43465;50.728;4.160;2023-05-07T02:48:03;16.80;99.90
57636;DHT22;43465;50.728;4.160;2023-05-07T02:50:28;16.80;99.90
57636;DHT22;43465;50.728;4.160;2023-05-07T02:52:54;16.80;99.90
57636;DHT22;43465;50.728;4.160;2023-05-07T02:55:20;16.80;99.90
57636;DHT22;43465;50.728;4.160;2023-05-07T02:57:46;16.80;99.90
57636;DHT22;43465;50.728;4.160;2023-05-07T03:00:16;16.90;99.90
57636;DHT22;43465;50.728;4.160;2023-05-07T03:02:43;16.90;99.90
57636;DHT22;43465;50.728;4.160;2023-05-07T03:05:09;16.90;99.90
57636;DHT22;43465;50.728;4.160;2023-05-07T03:07:36;17.00;99.90
57636;DHT22;43465;50.728;4.160;2023-05-07T03:10:02;17.10;99.90
57636;DHT22;43465;50.728;4.160;2023-05-07T03:12:27;17.00;99.90
57636;DHT22;43465;50.728;4.160;2023-05-07T03:14:53;17.00;99.90
57636;DHT22;43465;50.728;4.160;2023-05-07T03:17:19;17.00;99.90
57636;DHT22;43465;50.728;4.160;2023-05-07T03:19:45;16.90;99.90
57636;DHT22;43465;50.728;4.160;2023-05-07T03:22:11;16.80;99.90
57636;DHT22;43465;50.728;4.160;2023-05-07T03:24:36;16.80;99.90
57636;DHT22;43465;50.728;4.160;2023-05-07T03:27:02;16.80;99.90
57636;DHT22;43465;50.728;4.160;2023-05-07T03:29:28;16.70;99.90
57636;DHT22;43465;50.728;4.160;2023-05-07T03:31:53;16.70;99.90
57636;DHT22;43465;50.728;4.160;2023-05-07T03:34:19;16.60;99.90
57636;DHT22;43465;50.728;4.160;2023-05-07T03:36:48;16.70;99.90
57636;DHT22;43465;50.728;4.160;2023-05-07T03:39:14;16.80;99.90
57636;DHT22;43465;50.728;4.160;2023-05-07T03:41:40;16.80;99.90
57636;DHT22;43465;50.728;4.160;2023-05-07T03:44:05;16.80;99.90
57636;DHT22;43465;50.728;4.160;2023-05-07T03:46:31;16.90;99.90
57636;DHT22;43465;50.728;4.160;2023-05-07T03:48:58;16.90;99.90
57636;DHT22;43465;50.728;4.160;2023-05-07T03:51:24;16.90;99.90
57636;DHT22;43465;50.728;4.160;2023-05-07T03:53:49;17.00;99.90
57636;DHT22;43465;50.728;4.160;2023-05-07T03:56:18;16.90;99.90
57636;DHT22;43465;50.728;4.160;2023-05-07T03:58:44;16.90;99.90
57636;DHT22;43465;50.728;4.160;2023-05-07T04:01:09;16.90;99.90
57636;DHT22;43465;50.728;4.160;2023-05-07T04:03:35;16.80;99.90
57636;DHT22;43465;50.728;4.160;2023-05-07T04:06:01;16.70;99.90
57636;DHT22;43465;50.728;4.160;2023-05-07T04:08:26;16.70;99.90
57636;DHT22;43465;50.728;4.160;2023-05-07T04:10:56;16.70;99.90
57636;DHT22;43465;50.728;4.160;2023-05-07T04:13:22;16.70;99.90
57636;DHT22;43465;50.728;4.160;2023-05-07T04:15:47;16.70;99.90
57636;DHT22;43465;50.728;4.160;2023-05-07T04:18:14;16.70;99.90
57636;DHT22;43465;50.728;4.160;2023-05-07T04:20:40;16.60;99.90
57636;DHT22;43465;50.728;4.160;2023-05-07T04:23:06;16.60;99.90
57636;DHT22;43465;50.728;4.160;2023-05-07T04:25:32;16.60;99.90
57636;DHT22;43465;50.728;4.160;2023-05-07T04:27:58;16.70;99.90
57636;DHT22;43465;50.728;4.160;2023-05-07T04:30:24;16.70;99.90
57636;DHT22;43465;50.728;4.160;2023-05-07T04:32:50;16.70;99.90
57636;DHT22;43465;50.728;4.160;2023-05-07T04:35:16;16.70;99.90
57636;DHT22;43465;50.728;4.160;2023-05-07T04:37:42;16.70;99.90
57636;DHT22;43465;50.728;4.160;2023-05-07T04:40:08;16.80;99.90
57636;DHT22;43465;50.728;4.160;2023-05-07T04:42:34;16.70;99.90
57636;DHT22;43465;50.728;4.160;2023-05-07T04:45:00;16.70;99.90
57636;DHT22;43465;50.728;4.160;2023-05-07T04:47:26;16.80;99.90
57636;DHT22;43465;50.728;4.160;2023-05-07T04:49:52;16.90;99.90
57636;DHT22;43465;50.728;4.160;2023-05-07T04:52:17;17.00;99.90
57636;DHT22;43465;50.728;4.160;2023-05-07T04:54:43;17.00;99.90
57636;DHT22;43465;50.728;4.160;2023-05-07T04:57:09;17.00;99.90
57636;DHT22;43465;50.728;4.160;2023-05-07T04:59:34;17.00;99.90
57636;DHT22;43465;50.728;4.160;2023-05-07T05:02:00;17.20;99.90
57636;DHT22;43465;50.728;4.160;2023-05-07T05:04:26;17.30;99.90
57636;DHT22;43465;50.728;4.160;2023-05-07T05:06:52;17.30;99.90
57636;DHT22;43465;50.728;4.160;2023-05-07T05:09:18;17.30;99.90
57636;DHT22;43465;50.728;4.160;2023-05-07T05:11:44;17.30;99.90
57636;DHT22;43465;50.728;4.160;2023-05-07T05:14:09;17.30;99.90
57636;DHT22;43465;50.728;4.160;2023-05-07T05:16:35;17.40;99.90
57636;DHT22;43465;50.728;4.160;2023-05-07T05:19:02;17.40;99.90
57636;DHT22;43465;50.728;4.160;2023-05-07T05:21:28;17.30;99.90
57636;DHT22;43465;50.728;4.160;2023-05-07T05:23:53;17.20;99.90
57636;DHT22;43465;50.728;4.160;2023-05-07T05:26:19;17.10;99.90
57636;DHT22;43465;50.728;4.160;2023-05-07T05:28:46;16.90;99.90
57636;DHT22;43465;50.728;4.160;2023-05-07T05:31:12;16.90;99.90
57636;DHT22;43465;50.728;4.160;2023-05-07T05:33:37;16.70;99.90
57636;DHT22;43465;50.728;4.160;2023-05-07T05:36:04;16.70;99.90
57636;DHT22;43465;50.728;4.160;2023-05-07T05:38:29;16.70;99.90
57636;DHT22;43465;50.728;4.160;2023-05-07T05:40:55;16.60;99.90
57636;DHT22;43465;50.728;4.160;2023-05-07T05:43:21;16.60;99.90
57636;DHT22;43465;50.728;4.160;2023-05-07T05:45:46;16.60;99.90
57636;DHT22;43465;50.728;4.160;2023-05-07T05:48:12;16.60;99.90
57636;DHT22;43465;50.728;4.160;2023-05-07T05:50:38;16.50;99.90
57636;DHT22;43465;50.728;4.160;2023-05-07T05:53:03;16.40;99.90
57636;DHT22;43465;50.728;4.160;2023-05-07T05:55:30;16.50;99.90
57636;DHT22;43465;50.728;4.160;2023-05-07T05:57:58;16.40;99.90
57636;DHT22;43465;50.728;4.160;2023-05-07T06:00:23;16.40;99.90
57636;DHT22;43465;50.728;4.160;2023-05-07T06:02:49;16.30;99.90
57636;DHT22;43465;50.728;4.160;2023-05-07T06:05:15;16.40;99.90
57636;DHT22;43465;50.728;4.160;2023-05-07T06:07:41;16.30;99.90
57636;DHT22;43465;50.728;4.160;2023-05-07T06:10:07;16.30;99.90
57636;DHT22;43465;50.728;4.160;2023-05-07T06:12:32;16.30;99.90
57636;DHT22;43465;50.728;4.160;2023-05-07T06:14:58;16.30;99.90
57636;DHT22;43465;50.728;4.160;2023-05-07T06:17:24;16.30;99.90
57636;DHT22;43465;50.728;4.160;2023-05-07T06:19:49;16.30;99.90
57636;DHT22;43465;50.728;4.160;2023-05-07T06:22:15;16.30;99.90
57636;DHT22;43465;50.728;4.160;2023-05-07T06:24:41;16.40;99.90
57636;DHT22;43465;50.728;4.160;2023-05-07T06:27:06;16.40;99.90
57636;DHT22;43465;50.728;4.160;2023-05-07T06:29:32;16.40;99.90
57636;DHT22;43465;50.728;4.160;2023-05-07T06:32:12;16.50;99.90
57636;DHT22;43465;50.728;4.160;2023-05-07T06:34:39;16.40;99.90
57636;DHT22;43465;50.728;4.160;2023-05-07T06:37:05;16.40;99.90
57636;DHT22;43465;50.728;4.160;2023-05-07T06:39:31;16.40;99.90
57636;DHT22;43465;50.728;4.160;2023-05-07T06:41:57;16.50;99.90
57636;DHT22;43465;50.728;4.160;2023-05-07T06:44:23;16.50;99.90
57636;DHT22;43465;50.728;4.160;2023-05-07T06:46:48;16.60;99.90
57636;DHT22;43465;50.728;4.160;2023-05-07T06:49:14;16.60;99.90
57636;DHT22;43465;50.728;4.160;2023-05-07T06:51:40;16.60;99.90
57636;DHT22;43465;50.728;4.160;2023-05-07T06:54:06;16.60;99.90
57636;DHT22;43465;50.728;4.160;2023-05-07T06:56:32;16.70;99.90
57636;DHT22;43465;50.728;4.160;2023-05-07T06:59:00;16.80;99.90
57636;DHT22;43465;50.728;4.160;2023-05-07T07:01:26;16.80;99.90
57636;DHT22;43465;50.728;4.160;2023-05-07T07:03:51;16.80;99.90
57636;DHT22;43465;50.728;4.160;2023-05-07T07:06:17;16.90;99.90
57636;DHT22;43465;50.728;4.160;2023-05-07T07:08:43;16.90;99.90
57636;DHT22;43465;50.728;4.160;2023-05-07T07:11:10;17.00;99.90
57636;DHT22;43465;50.728;4.160;2023-05-07T07:13:36;17.00;99.90
57636;DHT22;43465;50.728;4.160;2023-05-07T07:16:02;17.10;99.90
57636;DHT22;43465;50.728;4.160;2023-05-07T07:18:28;17.10;99.90
57636;DHT22;43465;50.728;4.160;2023-05-07T07:20:54;17.10;99.90
57636;DHT22;43465;50.728;4.160;2023-05-07T07:23:20;17.10;99.90
57636;DHT22;43465;50.728;4.160;2023-05-07T07:25:45;17.10;99.90
57636;DHT22;43465;50.728;4.160;2023-05-07T07:28:11;17.20;99.90
57636;DHT22;43465;50.728;4.160;2023-05-07T07:30:37;17.20;99.90
57636;DHT22;43465;50.728;4.160;2023-05-07T07:33:03;17.20;99.90
57636;DHT22;43465;50.728;4.160;2023-05-07T07:35:29;17.20;99.90
57636;DHT22;43465;50.728;4.160;2023-05-07T07:37:55;17.30;99.90
57636;DHT22;43465;50.728;4.160;2023-05-07T07:40:21;17.30;99.90
57636;DHT22;43465;50.728;4.160;2023-05-07T07:42:47;17.30;99.90
57636;DHT22;43465;50.728;4.160;2023-05-07T07:45:13;17.40;99.90
57636;DHT22;43465;50.728;4.160;2023-05-07T07:47:40;17.50;99.90
57636;DHT22;43465;50.728;4.160;2023-05-07T07:50:06;17.50;99.90
57636;DHT22;43465;50.728;4.160;2023-05-07T07:52:32;17.60;99.90
57636;DHT22;43465;50.728;4.160;2023-05-07T07:54:58;17.60;99.90
57636;DHT22;43465;50.728;4.160;2023-05-07T07:57:24;17.60;99.90
57636;DHT22;43465;50.728;4.160;2023-05-07T07:59:50;17.50;99.90
57636;DHT22;43465;50.728;4.160;2023-05-07T08:02:16;17.50;99.90
57636;DHT22;43465;50.728;4.160;2023-05-07T08:04:42;17.40;99.90
57636;DHT22;43465;50.728;4.160;2023-05-07T08:07:09;17.50;99.90
57636;DHT22;43465;50.728;4.160;2023-05-07T08:09:35;17.50;99.90
57636;DHT22;43465;50.728;4.160;2023-05-07T08:12:01;17.60;99.90
57636;DHT22;43465;50.728;4.160;2023-05-07T08:14:27;17.60;99.90
57636;DHT22;43465;50.728;4.160;2023-05-07T08:16:54;17.70;99.90
57636;DHT22;43465;50.728;4.160;2023-05-07T08:19:20;17.70;99.90
57636;DHT22;43465;50.728;4.160;2023-05-07T08:21:46;17.70;99.90
57636;DHT22;43465;50.728;4.160;2023-05-07T08:24:14;17.70;99.90
57636;DHT22;43465;50.728;4.160;2023-05-07T08:26:40;17.80;99.90
57636;DHT22;43465;50.728;4.160;2023-05-07T08:29:06;17.90;99.90
57636;DHT22;43465;50.728;4.160;2023-05-07T08:31:31;17.80;99.90
57636;DHT22;43465;50.728;4.160;2023-05-07T08:33:58;17.80;99.90
57636;DHT22;43465;50.728;4.160;2023-05-07T08:36:24;17.80;99.90
57636;DHT22;43465;50.728;4.160;2023-05-07T08:38:51;17.80;99.90
57636;DHT22;43465;50.728;4.160;2023-05-07T08:41:17;17.80;99.90
57636;DHT22;43465;50.728;4.160;2023-05-07T08:43:49;17.80;99.90
57636;DHT22;43465;50.728;4.160;2023-05-07T08:46:20;17.90;99.90
57636;DHT22;43465;50.728;4.160;2023-05-07T08:48:48;18.00;99.90
57636;DHT22;43465;50.728;4.160;2023-05-07T08:51:17;18.00;99.90
57636;DHT22;43465;50.728;4.160;2023-05-07T08:53:44;18.20;99.90
57636;DHT22;43465;50.728;4.160;2023-05-07T08:56:10;18.40;99.90
57636;DHT22;43465;50.728;4.160;2023-05-07T08:58:36;18.40;99.90
57636;DHT22;43465;50.728;4.160;2023-05-07T09:01:16;18.40;99.90
57636;DHT22;43465;50.728;4.160;2023-05-07T09:03:44;18.40;99.90
57636;DHT22;43465;50.728;4.160;2023-05-07T09:06:10;18.40;99.90
57636;DHT22;43465;50.728;4.160;2023-05-07T09:08:36;18.40;99.90
57636;DHT22;43465;50.728;4.160;2023-05-07T09:11:03;18.50;99.90
57636;DHT22;43465;50.728;4.160;2023-05-07T09:13:29;18.50;99.90
57636;DHT22;43465;50.728;4.160;2023-05-07T09:15:55;18.60;99.90
57636;DHT22;43465;50.728;4.160;2023-05-07T09:18:21;18.70;99.90
57636;DHT22;43465;50.728;4.160;2023-05-07T09:20:49;18.60;99.90
57636;DHT22;43465;50.728;4.160;2023-05-07T09:23:16;18.60;99.90
57636;DHT22;43465;50.728;4.160;2023-05-07T09:25:42;18.50;99.90
57636;DHT22;43465;50.728;4.160;2023-05-07T09:28:07;18.40;99.90
57636;DHT22;43465;50.728;4.160;2023-05-07T09:30:35;18.40;99.90
57636;DHT22;43465;50.728;4.160;2023-05-07T09:33:02;18.30;99.90
57636;DHT22;43465;50.728;4.160;2023-05-07T09:35:29;18.30;99.90
57636;DHT22;43465;50.728;4.160;2023-05-07T09:37:59;18.30;99.90
57636;DHT22;43465;50.728;4.160;2023-05-07T09:40:26;18.30;99.90
57636;DHT22;43465;50.728;4.160;2023-05-07T09:42:53;18.30;99.90
57636;DHT22;43465;50.728;4.160;2023-05-07T09:45:25;18.30;99.90
57636;DHT22;43465;50.728;4.160;2023-05-07T09:47:54;18.50;99.90
57636;DHT22;43465;50.728;4.160;2023-05-07T09:50:28;18.50;99.90
57636;DHT22;43465;50.728;4.160;2023-05-07T09:52:55;18.60;99.90
57636;DHT22;43465;50.728;4.160;2023-05-07T09:55:22;18.60;99.90
57636;DHT22;43465;50.728;4.160;2023-05-07T09:57:50;18.60;99.90
57636;DHT22;43465;50.728;4.160;2023-05-07T10:00:19;18.50;99.90
57636;DHT22;43465;50.728;4.160;2023-05-07T10:02:48;18.50;99.90
57636;DHT22;43465;50.728;4.160;2023-05-07T10:05:15;18.50;99.90
57636;DHT22;43465;50.728;4.160;2023-05-07T10:07:42;18.50;99.90
57636;DHT22;43465;50.728;4.160;2023-05-07T10:10:09;18.40;99.90
57636;DHT22;43465;50.728;4.160;2023-05-07T10:12:36;18.50;99.90
57636;DHT22;43465;50.728;4.160;2023-05-07T10:15:10;18.60;99.90
57636;DHT22;43465;50.728;4.160;2023-05-07T10:17:39;18.70;99.90
57636;DHT22;43465;50.728;4.160;2023-05-07T10:20:06;18.80;99.90
57636;DHT22;43465;50.728;4.160;2023-05-07T10:22:41;18.80;99.90
57636;DHT22;43465;50.728;4.160;2023-05-07T10:25:28;18.90;99.90
57636;DHT22;43465;50.728;4.160;2023-05-07T10:27:55;19.00;99.90
57636;DHT22;43465;50.728;4.160;2023-05-07T10:33:33;19.10;99.90
57636;DHT22;43465;50.728;4.160;2023-05-07T10:36:01;19.10;99.90
57636;DHT22;43465;50.728;4.160;2023-05-07T10:38:30;19.10;99.90
57636;DHT22;43465;50.728;4.160;2023-05-07T10:40:55;19.10;99.90
57636;DHT22;43465;50.728;4.160;2023-05-07T10:43:22;19.20;99.90
57636;DHT22;43465;50.728;4.160;2023-05-07T10:46:17;19.20;99.90
57636;DHT22;43465;50.728;4.160;2023-05-07T10:51:32;19.30;99.90
57636;DHT22;43465;50.728;4.160;2023-05-07T10:54:24;19.20;99.90
57636;DHT22;43465;50.728;4.160;2023-05-07T10:56:51;19.30;99.90
57636;DHT22;43465;50.728;4.160;2023-05-07T11:01:59;19.50;99.90
57636;DHT22;43465;50.728;4.160;2023-05-07T11:04:25;19.50;99.90
57636;DHT22;43465;50.728;4.160;2023-05-07T11:09:55;19.80;99.90
57636;DHT22;43465;50.728;4.160;2023-05-07T11:15:08;19.90;99.90
57636;DHT22;43465;50.728;4.160;2023-05-07T11:17:35;19.80;99.90
57636;DHT22;43465;50.728;4.160;2023-05-07T11:20:17;19.80;99.90
57636;DHT22;43465;50.728;4.160;2023-05-07T11:22:42;19.80;99.90
57636;DHT22;43465;50.728;4.160;2023-05-07T11:25:08;19.80;99.90
57636;DHT22;43465;50.728;4.160;2023-05-07T11:27:34;19.80;99.90
57636;DHT22;43465;50.728;4.160;2023-05-07T11:30:00;19.90;99.90
57636;DHT22;43465;50.728;4.160;2023-05-07T11:32:31;19.90;99.90
57636;DHT22;43465;50.728;4.160;2023-05-07T11:35:00;19.90;99.90
57636;DHT22;43465;50.728;4.160;2023-05-07T11:37:27;20.00;99.90
57636;DHT22;43465;50.728;4.160;2023-05-07T11:40:05;20.20;99.90
57636;DHT22;43465;50.728;4.160;2023-05-07T11:42:34;20.30;99.90
57636;DHT22;43465;50.728;4.160;2023-05-07T11:45:00;20.30;99.90
57636;DHT22;43465;50.728;4.160;2023-05-07T11:47:26;20.40;99.90
57636;DHT22;43465;50.728;4.160;2023-05-07T11:49:53;20.40;99.90
57636;DHT22;43465;50.728;4.160;2023-05-07T11:52:22;20.40;99.90
57636;DHT22;43465;50.728;4.160;2023-05-07T11:54:58;20.40;99.90
57636;DHT22;43465;50.728;4.160;2023-05-07T11:57:25;20.30;99.90
57636;DHT22;43465;50.728;4.160;2023-05-07T11:59:57;20.30;99.90
57636;DHT22;43465;50.728;4.160;2023-05-07T12:02:24;20.20;99.90
57636;DHT22;43465;50.728;4.160;2023-05-07T12:04:53;20.10;99.90
57636;DHT22;43465;50.728;4.160;2023-05-07T12:07:19;20.10;99.90
57636;DHT22;43465;50.728;4.160;2023-05-07T12:09:46;20.00;99.90
57636;DHT22;43465;50.728;4.160;2023-05-07T12:12:13;20.00;99.90
57636;DHT22;43465;50.728;4.160;2023-05-07T12:14:41;19.90;99.90
57636;DHT22;43465;50.728;4.160;2023-05-07T12:17:08;20.10;99.90
57636;DHT22;43465;50.728;4.160;2023-05-07T12:19:35;20.30;99.90
57636;DHT22;43465;50.728;4.160;2023-05-07T12:22:03;20.40;99.90
57636;DHT22;43465;50.728;4.160;2023-05-07T12:24:30;20.50;99.90
57636;DHT22;43465;50.728;4.160;2023-05-07T12:27:06;20.50;99.90
57636;DHT22;43465;50.728;4.160;2023-05-07T12:29:32;20.50;99.90
57636;DHT22;43465;50.728;4.160;2023-05-07T12:31:58;20.60;99.90
57636;DHT22;43465;50.728;4.160;2023-05-07T12:34:24;20.50;99.90
57636;DHT22;43465;50.728;4.160;2023-05-07T12:36:49;20.60;99.90
57636;DHT22;43465;50.728;4.160;2023-05-07T12:39:15;20.60;99.90
57636;DHT22;43465;50.728;4.160;2023-05-07T12:41:58;20.50;99.90
57636;DHT22;43465;50.728;4.160;2023-05-07T12:44:33;20.30;99.90
57636;DHT22;43465;50.728;4.160;2023-05-07T12:47:02;20.30;99.90
57636;DHT22;43465;50.728;4.160;2023-05-07T12:49:28;20.40;99.90
57636;DHT22;43465;50.728;4.160;2023-05-07T12:51:54;20.30;99.90
57636;DHT22;43465;50.728;4.160;2023-05-07T12:54:34;20.40;99.90
57636;DHT22;43465;50.728;4.160;2023-05-07T12:57:05;20.40;99.90
57636;DHT22;43465;50.728;4.160;2023-05-07T12:59:37;20.30;99.90
57636;DHT22;43465;50.728;4.160;2023-05-07T13:02:03;20.20;99.90
57636;DHT22;43465;50.728;4.160;2023-05-07T13:04:28;20.10;99.90
57636;DHT22;43465;50.728;4.160;2023-05-07T13:06:54;20.00;99.90
57636;DHT22;43465;50.728;4.160;2023-05-07T13:09:20;19.90;99.90
57636;DHT22;43465;50.728;4.160;2023-05-07T13:11:46;19.90;99.90
57636;DHT22;43465;50.728;4.160;2023-05-07T13:14:12;19.90;99.90
57636;DHT22;43465;50.728;4.160;2023-05-07T13:16:37;19.90;99.90
57636;DHT22;43465;50.728;4.160;2023-05-07T13:19:03;20.00;99.90
57636;DHT22;43465;50.728;4.160;2023-05-07T13:21:30;19.90;99.90
57636;DHT22;43465;50.728;4.160;2023-05-07T13:23:57;19.90;99.90
57636;DHT22;43465;50.728;4.160;2023-05-07T13:26:23;19.90;99.90
57636;DHT22;43465;50.728;4.160;2023-05-07T13:28:49;19.90;99.90
57636;DHT22;43465;50.728;4.160;2023-05-07T13:31:16;20.00;99.90
57636;DHT22;43465;50.728;4.160;2023-05-07T13:33:42;20.10;99.90
57636;DHT22;43465;50.728;4.160;2023-05-07T13:36:08;20.10;99.90
57636;DHT22;43465;50.728;4.160;2023-05-07T13:38:34;20.10;99.90
57636;DHT22;43465;50.728;4.160;2023-05-07T13:41:00;20.10;99.90
57636;DHT22;43465;50.728;4.160;2023-05-07T13:43:26;20.10;99.90
57636;DHT22;43465;50.728;4.160;2023-05-07T13:45:51;20.10;99.90
57636;DHT22;43465;50.728;4.160;2023-05-07T13:48:17;20.00;99.90
57636;DHT22;43465;50.728;4.160;2023-05-07T13:50:43;20.00;99.90
57636;DHT22;43465;50.728;4.160;2023-05-07T13:53:08;19.90;99.90
57636;DHT22;43465;50.728;4.160;2023-05-07T13:55:34;19.90;99.90
57636;DHT22;43465;50.728;4.160;2023-05-07T13:58:01;19.80;99.90
57636;DHT22;43465;50.728;4.160;2023-05-07T14:00:28;19.80;99.90
57636;DHT22;43465;50.728;4.160;2023-05-07T14:02:54;19.80;99.90
57636;DHT22;43465;50.728;4.160;2023-05-07T14:05:20;19.80;99.90
57636;DHT22;43465;50.728;4.160;2023-05-07T14:07:46;19.70;99.90
57636;DHT22;43465;50.728;4.160;2023-05-07T14:10:13;19.70;99.90
57636;DHT22;43465;50.728;4.160;2023-05-07T14:12:38;19.70;99.90
57636;DHT22;43465;50.728;4.160;2023-05-07T14:15:04;19.70;99.90
57636;DHT22;43465;50.728;4.160;2023-05-07T14:17:30;19.70;99.90
57636;DHT22;43465;50.728;4.160;2023-05-07T14:19:57;19.60;99.90
57636;DHT22;43465;50.728;4.160;2023-05-07T14:22:22;19.60;99.90
57636;DHT22;43465;50.728;4.160;2023-05-07T14:24:49;19.70;99.90
57636;DHT22;43465;50.728;4.160;2023-05-07T14:27:15;19.80;99.90
57636;DHT22;43465;50.728;4.160;2023-05-07T14:29:41;19.90;99.90
57636;DHT22;43465;50.728;4.160;2023-05-07T14:32:11;19.90;99.90
57636;DHT22;43465;50.728;4.160;2023-05-07T14:34:37;20.00;99.90
57636;DHT22;43465;50.728;4.160;2023-05-07T14:37:03;20.00;99.90
57636;DHT22;43465;50.728;4.160;2023-05-07T14:39:28;20.10;99.90
57636;DHT22;43465;50.728;4.160;2023-05-07T14:41:54;20.20;99.90
57636;DHT22;43465;50.728;4.160;2023-05-07T14:44:21;20.30;99.90
57636;DHT22;43465;50.728;4.160;2023-05-07T14:46:47;20.30;99.90
57636;DHT22;43465;50.728;4.160;2023-05-07T14:49:14;20.30;99.90
57636;DHT22;43465;50.728;4.160;2023-05-07T14:51:46;20.30;99.90
57636;DHT22;43465;50.728;4.160;2023-05-07T14:54:12;20.30;99.90
57636;DHT22;43465;50.728;4.160;2023-05-07T14:56:39;20.30;99.90
57636;DHT22;43465;50.728;4.160;2023-05-07T14:59:05;20.20;99.90
57636;DHT22;43465;50.728;4.160;2023-05-07T15:01:31;20.20;99.90
57636;DHT22;43465;50.728;4.160;2023-05-07T15:03:56;20.20;99.90
57636;DHT22;43465;50.728;4.160;2023-05-07T15:06:22;20.20;99.90
57636;DHT22;43465;50.728;4.160;2023-05-07T15:08:48;20.20;99.90
57636;DHT22;43465;50.728;4.160;2023-05-07T15:11:14;20.20;99.90
57636;DHT22;43465;50.728;4.160;2023-05-07T15:13:41;20.20;99.90
57636;DHT22;43465;50.728;4.160;2023-05-07T15:16:07;20.10;99.90
57636;DHT22;43465;50.728;4.160;2023-05-07T15:18:32;20.00;99.90
57636;DHT22;43465;50.728;4.160;2023-05-07T15:20:58;20.00;99.90
57636;DHT22;43465;50.728;4.160;2023-05-07T15:23:24;20.00;99.90
57636;DHT22;43465;50.728;4.160;2023-05-07T15:25:49;20.00;99.90
57636;DHT22;43465;50.728;4.160;2023-05-07T15:28:15;20.00;99.90
57636;DHT22;43465;50.728;4.160;2023-05-07T15:30:41;20.10;99.90
57636;DHT22;43465;50.728;4.160;2023-05-07T15:33:06;20.20;99.90
57636;DHT22;43465;50.728;4.160;2023-05-07T15:35:32;20.20;99.90
57636;DHT22;43465;50.728;4.160;2023-05-07T15:37:58;20.20;99.90
57636;DHT22;43465;50.728;4.160;2023-05-07T15:40:24;20.10;99.90
57636;DHT22;43465;50.728;4.160;2023-05-07T15:42:50;20.10;99.90
57636;DHT22;43465;50.728;4.160;2023-05-07T15:45:19;20.10;99.90